עמוד ראשי
METAR-TAF:

METAR-TAF

שדות תעופה :

תבוכ, ערב הסעודית

קו רוחב: 28-22N, קו אורך: 036-36E, גובה: 778מטר

תצפית מזג אוויר נוכחית

הדו"ח נערך לפני 49דקות, בשעה 19:00 UTC
רוח 10קשר מכיוון צפון/צפון-מערב
טמפרטורת 36 צלסיוס
לחות 6%
לחץ 1012 hPa
ראות 10 קילומטר או יותר
ללא עננים שבסיסם נמוך מ 5000 רגל או קומולונימבוס

METAR: OETB 131900Z 34010KT CAVOK 36/M07 Q1012 NOSIG

זמן: 22:49 (19:49 UTC)

תחזית

הדו"ח נערך לפני 8 שעות ו 49דקות, בשעה 11:00 UTC
תחזית בתוקף מ 13 ב 12 UTC עד 14 ב 18 UTC
רוח 8קשר מכיוון מזרח/צפון-מזרח
ראות 10 קילומטר או יותר
ללא עננים שבסיסם נמוך מ 5000 רגל או קומולונימבוס
יעשה מ
13 ב 20 UTC עד 13 ב 22 UTC
רוח 3קשר עם כיוונים משתנים

TAF: OETB 131100Z 1312/1418 06008KT CAVOK BECMG 1320/1322 VRB03KT

תצפיות ותחזיות מזג אוויר לגבי יותר מ- 4,000 שדות תעופה ברחבי העולם. דוחות METAR ו- TAF.

התחנות הזמינות מסומנות בנקודות צהובות ואדומות על גבי המפה.

העבר את העכבר לנקודה הצבעונית על מנת לראות את שם התחנה.

לאחר מכן, לחץ כדי לראות את תוכן ואת תחזיות מזג האוויר.

כדי לשנות את המפה: לחץ על הכפתורים הירוקים עם הפלוס השחור כדי להתקרב; על הכפתור הירוק עם המקף כדי להתרחק; או בחיצים הירוקים למפות סמוכות.


METAR-TAF: